Time;durP1;ratioP1;P1;durP2;ratioP2;P2;SDS_P1;SDS_P2;PMS_P1;PMS_P2;Temp;Humidity;BMP_temperature;BMP_pressure;BME280_temperature;BME280_humidity;BME280_pressure;Samples;Min_cycle;Max_cycle;Signal;HPM_P1;HPM_P2
2021/11/14 00:00:57;;;;;;;26.77;20.15;;;;;;;10.88;100.00;101583.19;5237277;28;20387;-69
2021/11/14 00:03:29;;;;;;;29.95;21.48;;;;;;;10.83;100.00;101593.97;5239697;28;20036;-68
2021/11/14 00:06:03;;;;;;;25.33;19.97;;;;;;;10.86;100.00;101585.06;5234946;28;20021;-68
2021/11/14 00:08:36;;;;;;;30.40;22.73;;;;;;;10.83;100.00;101585.28;5230639;28;20276;-68
2021/11/14 00:11:13;;;;;;;30.55;23.88;;;;;;;10.93;100.00;101587.13;5238151;28;20025;-68
2021/11/14 00:13:46;;;;;;;30.77;21.40;;;;;;;10.82;100.00;101578.38;5237172;28;20032;-68
2021/11/14 00:16:20;;;;;;;32.22;23.48;;;;;;;10.86;100.00;101587.69;5233876;28;20044;-68
2021/11/14 00:18:51;;;;;;;31.38;23.88;;;;;;;10.78;100.00;101587.44;5234455;28;20021;-68
2021/11/14 00:21:26;;;;;;;32.42;23.23;;;;;;;10.87;100.00;101591.97;5241257;28;20033;-68
2021/11/14 00:23:58;;;;;;;30.33;23.55;;;;;;;10.80;100.00;101594.25;5243795;28;20043;-68
2021/11/14 00:26:29;;;;;;;35.53;24.75;;;;;;;10.82;100.00;101601.97;5243169;28;20041;-68
2021/11/14 00:29:00;;;;;;;31.60;24.65;;;;;;;10.80;100.00;101609.97;5242063;28;20135;-68
2021/11/14 00:31:32;;;;;;;31.23;23.58;;;;;;;10.82;100.00;101610.66;5247193;28;20037;-68
2021/11/14 00:34:05;;;;;;;35.55;25.23;;;;;;;10.79;100.00;101610.88;5246685;28;20556;-68
2021/11/14 00:36:38;;;;;;;33.00;24.15;;;;;;;10.79;100.00;101610.88;5245628;28;20037;-68
2021/11/14 00:39:13;;;;;;;30.95;23.92;;;;;;;10.84;100.00;101616.66;5241771;28;20032;-68
2021/11/14 00:41:46;;;;;;;29.50;22.98;;;;;;;10.85;100.00;101613.06;5243629;28;20025;-68
2021/11/14 00:44:17;;;;;;;33.08;24.48;;;;;;;10.87;100.00;101616.44;5242849;28;20439;-68
2021/11/14 00:46:49;;;;;;;30.27;24.25;;;;;;;10.86;100.00;101621.78;5240517;28;20029;-68
2021/11/14 00:49:20;;;;;;;33.38;24.02;;;;;;;10.87;100.00;101619.06;5243073;28;20483;-68
2021/11/14 00:51:51;;;;;;;32.50;25.58;;;;;;;10.86;100.00;101616.53;5243998;28;20033;-68
2021/11/14 00:54:22;;;;;;;34.05;25.38;;;;;;;10.85;100.00;101612.25;5241618;28;20526;-69
2021/11/14 00:56:54;;;;;;;34.08;23.92;;;;;;;10.82;100.00;101618.53;5243796;28;20079;-68
2021/11/14 00:59:25;;;;;;;36.40;25.35;;;;;;;10.85;100.00;101615.69;5241855;28;20056;-68
2021/11/14 01:01:56;;;;;;;37.55;27.02;;;;;;;10.81;100.00;101614.25;5242420;28;20021;-68
2021/11/14 01:04:28;;;;;;;35.33;26.40;;;;;;;10.79;100.00;101617.91;5242423;28;20033;-68
2021/11/14 01:06:59;;;;;;;37.60;26.10;;;;;;;10.81;100.00;101623.91;5243152;28;20366;-68
2021/11/14 01:09:31;;;;;;;33.95;25.73;;;;;;;10.82;100.00;101621.16;5243676;28;20033;-68
2021/11/14 01:12:02;;;;;;;34.80;25.58;;;;;;;10.81;100.00;101629.16;5240988;28;20025;-68
2021/11/14 01:14:35;;;;;;;35.67;25.50;;;;;;;10.80;100.00;101630.09;5240072;28;20037;-68
2021/11/14 01:17:07;;;;;;;34.90;25.35;;;;;;;10.81;100.00;101621.28;5241136;28;20078;-68
2021/11/14 01:19:38;;;;;;;37.00;26.67;;;;;;;10.79;100.00;101631.84;5241384;28;20029;-68
2021/11/14 01:22:10;;;;;;;34.60;26.02;;;;;;;10.80;100.00;101633.56;5241581;28;20025;-68
2021/11/14 01:24:43;;;;;;;33.15;24.95;;;;;;;10.83;100.00;101645.56;5242283;28;20033;-68
2021/11/14 01:27:15;;;;;;;32.42;24.63;;;;;;;10.83;100.00;101641.16;5241351;28;20078;-68
2021/11/14 01:29:46;;;;;;;33.47;25.08;;;;;;;10.82;100.00;101650.00;5222424;28;20028;-68
2021/11/14 01:32:17;;;;;;;36.03;25.33;;;;;;;10.79;100.00;101650.22;5241532;28;20029;-68
2021/11/14 01:34:49;;;;;;;38.42;26.83;;;;;;;10.81;100.00;101653.56;5243010;28;20402;-68
2021/11/14 01:37:20;;;;;;;31.50;24.98;;;;;;;10.85;100.00;101659.44;5242225;28;20111;-68
2021/11/14 01:39:52;;;;;;;38.63;27.50;;;;;;;10.84;100.00;101663.00;5241707;28;20087;-68
2021/11/14 01:42:23;;;;;;;34.25;25.50;;;;;;;10.81;100.00;101657.97;5241152;28;20022;-68
2021/11/14 01:44:55;;;;;;;34.63;25.90;;;;;;;10.79;100.00;101654.63;5240501;28;20052;-68
2021/11/14 01:47:26;;;;;;;38.00;26.52;;;;;;;10.81;100.00;101657.97;5238991;28;20028;-68
2021/11/14 01:49:58;;;;;;;33.25;25.90;;;;;;;10.84;100.00;101661.22;5240725;28;20025;-68
2021/11/14 01:52:30;;;;;;;36.22;26.35;;;;;;;10.85;100.00;101669.91;5242656;28;20029;-68
2021/11/14 01:55:03;;;;;;;37.92;27.08;;;;;;;10.82;100.00;101672.75;5240563;28;20095;-68
2021/11/14 01:57:36;;;;;;;34.35;26.80;;;;;;;10.84;100.00;101669.06;5240400;28;20102;-68
2021/11/14 02:00:14;;;;;;;35.72;26.52;;;;;;;10.84;100.00;101673.50;5241075;28;20070;-68
2021/11/14 02:02:45;;;;;;;39.10;27.95;;;;;;;10.80;100.00;101674.66;5241473;28;20037;-68
2021/11/14 02:05:22;;;;;;;40.00;28.63;;;;;;;10.77;100.00;101680.13;5240493;28;20502;-68
2021/11/14 02:07:56;;;;;;;39.00;26.90;;;;;;;10.77;100.00;101673.09;5241680;28;20032;-68
2021/11/14 02:10:29;;;;;;;36.88;27.40;;;;;;;10.75;100.00;101680.22;5242790;28;20025;-69
2021/11/14 02:13:02;;;;;;;38.47;28.80;;;;;;;10.73;100.00;101682.13;5239486;28;20041;-69
2021/11/14 02:15:35;;;;;;;36.67;26.15;;;;;;;10.73;100.00;101679.50;5240607;28;20745;-68
2021/11/14 02:18:10;;;;;;;40.30;28.92;;;;;;;10.75;100.00;101688.06;5241144;28;20040;-68
2021/11/14 02:20:44;;;;;;;34.58;26.35;;;;;;;10.74;100.00;101690.81;5242259;28;20018;-68
2021/11/14 02:23:18;;;;;;;37.20;28.05;;;;;;;10.70;100.00;101688.41;5241981;28;20026;-68
2021/11/14 02:25:51;;;;;;;41.70;29.45;;;;;;;10.66;100.00;101691.38;5243148;28;20036;-68
2021/11/14 02:28:24;;;;;;;36.20;27.08;;;;;;;10.69;100.00;101692.00;5241294;28;20020;-68
2021/11/14 02:30:58;;;;;;;40.63;28.00;;;;;;;10.68;100.00;101697.31;5241948;28;20033;-68
2021/11/14 02:33:30;;;;;;;35.72;26.80;;;;;;;10.64;100.00;101690.63;5240075;28;20037;-68
2021/11/14 02:36:07;;;;;;;37.33;26.80;;;;;;;10.73;100.00;101703.09;5239408;28;20021;-68
2021/11/14 02:38:38;;;;;;;35.67;27.13;;;;;;;10.67;100.00;101700.91;5240948;28;20095;-68
2021/11/14 02:41:11;;;;;;;37.13;27.52;;;;;;;10.63;100.00;101707.31;5240240;28;20569;-69
2021/11/14 02:43:46;;;;;;;38.10;27.67;;;;;;;10.70;100.00;101713.78;5239674;28;20034;-68
2021/11/14 02:46:18;;;;;;;37.92;27.17;;;;;;;10.63;100.00;101708.13;5240633;28;20027;-68
2021/11/14 02:48:49;;;;;;;40.40;26.70;;;;;;;10.63;100.00;101715.16;5240551;28;20041;-68
2021/11/14 02:51:23;;;;;;;39.13;27.90;;;;;;;10.63;100.00;101718.63;5240435;28;20017;-69
2021/11/14 02:53:56;;;;;;;36.28;26.08;;;;;;;10.56;100.00;101720.00;5239712;28;20045;-68
2021/11/14 02:56:28;;;;;;;36.83;25.55;;;;;;;10.58;100.00;101718.13;5240605;28;20025;-68
2021/11/14 02:59:01;;;;;;;36.80;26.23;;;;;;;10.60;100.00;101725.84;5240439;28;20017;-68
2021/11/14 03:01:38;;;;;;;35.70;26.65;;;;;;;10.63;100.00;101725.66;5236206;28;20037;-68
2021/11/14 03:04:17;;;;;;;34.17;26.23;;;;;;;10.67;100.00;101727.09;5239208;28;20051;-69
2021/11/14 03:06:50;;;;;;;34.90;26.08;;;;;;;10.54;100.00;101718.44;5237318;28;20059;-68
2021/11/14 03:09:22;;;;;;;;;;;;;;;11.11;100.00;101725.69;5238526;28;20490;-69
2021/11/14 03:11:58;;;;;;;32.38;24.63;;;;;;;10.64;100.00;101717.66;5239454;28;19963;-68
2021/11/14 03:14:29;;;;;;;37.42;26.33;;;;;;;10.55;100.00;101723.56;5241006;28;20037;-69
2021/11/14 03:17:01;;;;;;;31.88;24.48;;;;;;;10.60;100.00;101731.09;5239593;28;20098;-69
2021/11/14 03:19:32;;;;;;;34.30;26.65;;;;;;;10.49;100.00;101726.63;5238620;28;20020;-69
2021/11/14 03:22:04;;;;;;;32.55;24.40;;;;;;;10.47;100.00;101726.72;5240020;28;20021;-69
2021/11/14 03:24:36;;;;;;;33.67;25.17;;;;;;;10.44;100.00;101733.97;5239210;28;20069;-69
2021/11/14 03:27:07;;;;;;;35.33;24.13;;;;;;;10.40;100.00;101738.59;5240785;28;20029;-69
2021/11/14 03:29:38;;;;;;;31.83;24.08;;;;;;;10.38;100.00;101732.63;5238652;28;20033;-69
2021/11/14 03:32:12;;;;;;;33.42;24.42;;;;;;;10.41;100.00;101742.03;5239418;28;20025;-69
2021/11/14 03:34:43;;;;;;;33.38;25.25;;;;;;;10.38;100.00;101739.63;5239465;28;20442;-69
2021/11/14 03:37:18;;;;;;;34.25;24.52;;;;;;;10.40;100.00;101748.22;5240748;28;20036;-69
2021/11/14 03:39:49;;;;;;;34.83;25.23;;;;;;;10.39;100.00;101750.00;5240515;28;20043;-69
2021/11/14 03:42:21;;;;;;;35.08;26.13;;;;;;;10.39;100.00;101743.94;5238682;28;20034;-69
2021/11/14 03:44:52;;;;;;;34.65;24.88;;;;;;;10.39;100.00;101752.63;5239349;28;20051;-69
2021/11/14 03:47:24;;;;;;;36.47;25.08;;;;;;;10.44;100.00;101747.91;5239419;28;20072;-69
2021/11/14 03:49:55;;;;;;;31.15;24.13;;;;;;;10.42;100.00;101755.03;5239211;28;20033;-69
2021/11/14 03:52:26;;;;;;;34.13;24.88;;;;;;;10.44;100.00;101752.31;5238114;28;20037;-69
2021/11/14 03:54:58;;;;;;;34.13;24.65;;;;;;;10.43;100.00;101768.97;5237516;28;20156;-69
2021/11/14 03:57:29;;;;;;;34.97;24.77;;;;;;;10.41;100.00;101755.97;5237917;28;20036;-69
2021/11/14 04:00:03;;;;;;;36.15;25.17;;;;;;;10.39;100.00;101764.91;5238391;28;20075;-69
2021/11/14 04:02:35;;;;;;;34.58;23.88;;;;;;;10.36;100.00;101768.56;5240405;28;20095;-69
2021/11/14 04:05:08;;;;;;;32.22;24.08;;;;;;;10.38;100.00;101769.31;5239565;28;20443;-69
2021/11/14 04:07:39;;;;;;;32.67;24.65;;;;;;;10.40;100.00;101770.00;5237622;28;20116;-69
2021/11/14 04:10:11;;;;;;;33.17;24.75;;;;;;;10.38;100.00;101773.69;5238759;28;20032;-68
2021/11/14 04:12:43;;;;;;;32.35;23.08;;;;;;;10.37;100.00;101772.84;5239062;28;20509;-69
2021/11/14 04:15:16;;;;;;;34.22;24.25;;;;;;;10.35;100.00;101779.97;5240443;28;20025;-69
2021/11/14 04:17:55;;;;;;;33.80;23.98;;;;;;;10.35;100.00;101789.63;5238197;28;20013;-69
2021/11/14 04:20:29;;;;;;;34.10;24.40;;;;;;;10.39;100.00;101783.22;5240359;28;20029;-69
2021/11/14 04:23:01;;;;;;;35.05;25.70;;;;;;;10.33;100.00;101781.84;5236452;28;20061;-69
2021/11/14 04:25:32;;;;;;;38.13;25.90;;;;;;;10.34;100.00;101786.19;5237094;28;20067;-69
2021/11/14 04:28:06;;;;;;;35.72;25.58;;;;;;;10.33;100.00;101786.25;5236190;28;20431;-69
2021/11/14 04:30:38;;;;;;;35.97;25.52;;;;;;;10.33;100.00;101794.94;5241047;28;20574;-69
2021/11/14 04:33:10;;;;;;;37.67;26.42;;;;;;;10.33;100.00;101791.50;5239711;28;20029;-69
2021/11/14 04:35:42;;;;;;;40.08;27.35;;;;;;;10.32;100.00;101793.28;5236433;28;20028;-69
2021/11/14 04:38:14;;;;;;;36.63;26.85;;;;;;;10.35;100.00;101798.31;5238244;28;20079;-69
2021/11/14 04:40:47;;;;;;;32.75;24.58;;;;;;;10.35;100.00;101800.94;5237506;28;20479;-69
2021/11/14 04:43:19;;;;;;;37.65;27.15;;;;;;;10.34;100.00;101799.28;5238018;28;20394;-69
2021/11/14 04:45:52;;;;;;;34.63;25.57;;;;;;;10.34;100.00;101801.91;5239519;28;20021;-69
2021/11/14 04:48:23;;;;;;;35.08;25.60;;;;;;;10.36;100.00;101800.00;5238506;28;20064;-68
2021/11/14 04:50:55;;;;;;;37.53;26.45;;;;;;;10.34;100.00;101801.03;5237339;28;20570;-68
2021/11/14 04:53:26;;;;;;;39.25;26.33;;;;;;;10.31;100.00;101801.25;5238148;28;20053;-68
2021/11/14 04:55:57;;;;;;;37.45;26.95;;;;;;;10.24;100.00;101796.41;5238689;28;20021;-68
2021/11/14 04:58:29;;;;;;;37.47;26.42;;;;;;;10.26;100.00;101796.31;5219282;28;20068;-68
2021/11/14 05:01:00;;;;;;;45.85;27.05;;;;;;;10.22;100.00;101797.44;5237076;28;20075;-68
2021/11/14 05:03:31;;;;;;;40.05;27.52;;;;;;;10.20;100.00;101807.19;5238364;28;20428;-68
2021/11/14 05:06:04;;;;;;;41.95;28.25;;;;;;;10.19;100.00;101808.97;5238211;28;20025;-69
2021/11/14 05:08:36;;;;;;;36.85;25.88;;;;;;;10.21;100.00;101814.94;5243429;28;20049;-69
2021/11/14 05:11:08;;;;;;;40.80;28.88;;;;;;;10.21;100.00;101814.09;5242393;28;20495;-69
2021/11/14 05:13:39;;;;;;;41.13;28.08;;;;;;;10.19;100.00;101808.97;5224740;28;20025;-69
2021/11/14 05:16:10;;;;;;;41.60;29.58;;;;;;;10.23;100.00;101812.22;5240502;28;20028;-69
2021/11/14 05:18:42;;;;;;;41.00;27.55;;;;;;;10.25;100.00;101823.44;5241732;28;20021;-69
2021/11/14 05:21:13;;;;;;;41.25;28.27;;;;;;;10.24;100.00;101821.75;5243848;28;20029;-69
2021/11/14 05:23:45;;;;;;;46.47;29.38;;;;;;;10.16;100.00;101826.69;5241098;28;20041;-69
2021/11/14 05:26:16;;;;;;;44.17;29.83;;;;;;;10.19;100.00;101831.69;5242176;28;20399;-69
2021/11/14 05:28:48;;;;;;;44.97;29.00;;;;;;;10.16;100.00;101834.53;5242033;28;20091;-69
2021/11/14 05:31:20;;;;;;;50.22;32.70;;;;;;;10.20;100.00;101838.63;5241714;28;20065;-69
2021/11/14 05:33:51;;;;;;;52.67;32.80;;;;;;;10.20;100.00;101842.06;5242081;28;20110;-69
2021/11/14 05:36:23;;;;;;;52.88;33.15;;;;;;;10.13;100.00;101848.66;5242293;28;20025;-69
2021/11/14 05:38:56;;;;;;;54.13;34.77;;;;;;;10.15;100.00;101854.66;5243559;28;20033;-69
2021/11/14 05:41:27;;;;;;;50.78;31.88;;;;;;;10.15;100.00;101851.16;5241295;28;20387;-69
2021/11/14 05:43:58;;;;;;;57.67;34.55;;;;;;;10.12;100.00;101854.00;5241174;28;20037;-69
2021/11/14 05:46:30;;;;;;;56.22;34.70;;;;;;;10.14;100.00;101855.56;5242847;28;20410;-69
2021/11/14 05:49:08;;;;;;;62.72;35.35;;;;;;;10.14;100.00;101852.09;5241039;28;20060;-69
2021/11/14 05:51:39;;;;;;;62.42;34.10;;;;;;;10.14;100.00;101862.59;5242531;28;20461;-69
2021/11/14 05:54:11;;;;;;;67.00;36.20;;;;;;;10.14;100.00;101866.03;5240957;28;20050;-69
2021/11/14 05:56:42;;;;;;;60.42;33.22;;;;;;;10.17;100.00;101875.47;5240997;28;20064;-69
2021/11/14 06:01:56;;;;;;;63.38;36.70;;;;;;;10.19;100.00;101870.97;5240930;28;20082;-69
2021/11/14 06:07:17;;;;;;;67.30;37.60;;;;;;;10.20;100.00;101880.53;5240947;28;20038;-69
2021/11/14 06:09:48;;;;;;;63.30;36.70;;;;;;;10.22;100.00;101882.06;5238937;28;20013;-69
2021/11/14 06:12:20;;;;;;;70.40;37.67;;;;;;;10.21;100.00;101887.44;5241479;28;20036;-69
2021/11/14 06:14:51;;;;;;;67.57;37.88;;;;;;;10.22;100.00;101899.56;5241421;28;20024;-69
2021/11/14 06:17:23;;;;;;;60.58;37.85;;;;;;;10.22;100.00;101889.94;5240234;28;20483;-69
2021/11/14 06:19:54;;;;;;;61.58;35.75;;;;;;;10.21;100.00;101900.53;5239134;28;20025;-69
2021/11/14 06:22:26;;;;;;;64.82;36.25;;;;;;;10.21;100.00;101893.50;5240327;28;20148;-69
2021/11/14 06:24:57;;;;;;;59.10;36.53;;;;;;;10.23;100.00;101893.41;5241732;28;20033;-69
2021/11/14 06:27:29;;;;;;;64.65;38.40;;;;;;;10.22;100.00;101895.16;5239343;28;20033;-69
2021/11/14 06:30:02;;;;;;;60.45;35.28;;;;;;;10.26;100.00;101906.31;5239953;28;20029;-69
2021/11/14 06:32:33;;;;;;;58.83;35.25;;;;;;;10.26;100.00;101906.31;5239757;28;20029;-69
2021/11/14 06:35:05;;;;;;;60.85;35.53;;;;;;;10.25;100.00;101909.88;5241250;28;20033;-69
2021/11/14 06:37:36;;;;;;;57.78;35.55;;;;;;;10.23;100.00;101920.44;5240697;28;20033;-69
2021/11/14 06:40:09;;;;;;;57.33;34.92;;;;;;;10.26;100.00;101911.56;5239828;28;20490;-69
2021/11/14 06:42:40;;;;;;;60.37;35.60;;;;;;;10.26;100.00;101916.78;5239972;28;20087;-69
2021/11/14 06:45:11;;;;;;;59.75;34.88;;;;;;;10.24;100.00;101916.03;5239887;28;20033;-69
2021/11/14 06:47:43;;;;;;;54.40;32.67;;;;;;;10.27;100.00;101930.75;5240639;28;20025;-69
2021/11/14 06:50:15;;;;;;;60.30;34.90;;;;;;;10.27;100.00;101923.72;5240144;28;20534;-69
2021/11/14 06:52:47;;;;;;;55.65;33.65;;;;;;;10.24;100.00;101932.59;5239510;28;20556;-69
2021/11/14 06:55:18;;;;;;;55.80;34.05;;;;;;;10.27;100.00;101943.84;5240258;28;20025;-69
2021/11/14 06:57:50;;;;;;;57.17;34.80;;;;;;;10.27;100.00;101947.31;5240826;28;20025;-69
2021/11/14 07:00:23;;;;;;;58.40;34.30;;;;;;;10.28;100.00;101953.38;5238870;28;20043;-69
2021/11/14 07:02:55;;;;;;;51.88;32.95;;;;;;;10.28;100.00;101950.75;5238675;28;20915;-69
2021/11/14 07:05:26;;;;;;;56.45;33.63;;;;;;;10.33;100.00;101956.53;5239790;28;20081;-69
2021/11/14 07:07:57;;;;;;;58.25;34.50;;;;;;;10.28;100.00;101956.81;5241247;28;20029;-69
2021/11/14 07:10:29;;;;;;;54.85;33.45;;;;;;;10.28;100.00;101964.69;5240777;28;20052;-69
2021/11/14 07:13:00;;;;;;;56.38;33.63;;;;;;;10.22;100.00;101955.41;5238228;28;20482;-69
2021/11/14 07:15:32;;;;;;;54.83;32.40;;;;;;;10.29;100.00;101968.13;5239013;28;20041;-69
2021/11/14 07:18:03;;;;;;;51.53;32.55;;;;;;;10.25;100.00;101972.75;5240921;28;20527;-69
2021/11/14 07:20:34;;;;;;;54.75;32.95;;;;;;;10.24;100.00;101969.25;5242691;28;20115;-69
2021/11/14 07:23:06;;;;;;;53.00;30.83;;;;;;;10.25;100.00;101980.59;5239328;28;20033;-69
2021/11/14 07:25:37;;;;;;;54.42;34.25;;;;;;;10.25;100.00;101985.84;5241042;28;20060;-69
2021/11/14 07:28:10;;;;;;;57.70;33.67;;;;;;;10.26;100.00;101987.50;5238528;28;20025;-69
2021/11/14 07:30:42;;;;;;;;;;;;;;;10.75;100.00;101996.53;5239463;28;20583;-69
2021/11/14 07:33:13;;;;;;;50.88;31.60;;;;;;;10.33;100.00;101995.81;5241017;28;19920;-69
2021/11/14 07:35:45;;;;;;;49.63;32.70;;;;;;;10.21;100.00;101995.63;5238781;28;20470;-69
2021/11/14 07:38:16;;;;;;;51.03;33.15;;;;;;;10.20;100.00;102001.81;5237506;28;20091;-69
2021/11/14 07:40:47;;;;;;;50.67;32.78;;;;;;;10.21;100.00;102005.28;5238990;28;20463;-69
2021/11/14 07:43:19;;;;;;;45.25;31.02;;;;;;;10.22;100.00;102002.53;5240120;28;20047;-69
2021/11/14 07:45:50;;;;;;;48.65;30.98;;;;;;;10.12;100.00;102008.50;5239233;28;20075;-69
2021/11/14 07:48:21;;;;;;;42.83;29.55;;;;;;;10.15;100.00;102017.00;5238872;28;20041;-69
2021/11/14 07:50:54;;;;;;;44.75;29.25;;;;;;;10.08;100.00;102028.81;5237937;28;20021;-69
2021/11/14 07:53:26;;;;;;;45.50;31.15;;;;;;;10.05;100.00;102030.78;5240158;28;20049;-69
2021/11/14 07:55:58;;;;;;;44.10;29.65;;;;;;;10.03;100.00;102030.84;5238806;28;20483;-69
2021/11/14 07:58:29;;;;;;;43.33;29.00;;;;;;;10.14;100.00;102040.66;5240906;28;20029;-69
2021/11/14 08:01:01;;;;;;;42.83;28.80;;;;;;;10.10;100.00;102044.41;5240262;28;20658;-69
2021/11/14 08:03:32;;;;;;;42.38;28.33;;;;;;;10.11;100.00;102046.91;5239428;28;20071;-69
2021/11/14 08:06:04;;;;;;;43.63;29.73;;;;;;;10.05;100.00;102051.72;5241484;28;20029;-69
2021/11/14 08:08:36;;;;;;;43.38;28.60;;;;;;;10.05;100.00;102051.72;5240592;28;20792;-69
2021/11/14 08:11:07;;;;;;;40.08;27.55;;;;;;;10.08;100.00;102062.00;5237951;28;20090;-69
2021/11/14 08:13:39;;;;;;;42.42;29.15;;;;;;;10.07;100.00;102062.91;5238679;28;20404;-69
2021/11/14 08:16:10;;;;;;;40.55;27.80;;;;;;;10.01;100.00;102064.16;5239567;28;20083;-69
2021/11/14 08:18:41;;;;;;;37.92;28.20;;;;;;;9.99;100.00;102072.09;5238362;28;20475;-69
2021/11/14 08:21:13;;;;;;;37.85;26.50;;;;;;;9.95;100.00;102081.06;5239454;28;20017;-69
2021/11/14 08:23:44;;;;;;;34.63;24.58;;;;;;;9.88;100.00;102079.78;5238067;28;20079;-69
2021/11/14 08:26:16;;;;;;;34.67;25.65;;;;;;;9.85;100.00;102074.75;5241146;28;20506;-69
2021/11/14 08:28:47;;;;;;;35.03;24.75;;;;;;;9.89;100.00;102073.63;5241141;28;20109;-69
2021/11/14 08:31:21;;;;;;;33.28;24.75;;;;;;;9.86;100.00;102083.44;5239959;28;20113;-69
2021/11/14 08:33:52;;;;;;;33.90;23.90;;;;;;;9.85;100.00;102081.75;5238620;28;20021;-69
2021/11/14 08:36:26;;;;;;;34.15;24.00;;;;;;;9.83;100.00;102086.25;5239099;28;20032;-69
2021/11/14 08:38:58;;;;;;;37.20;25.83;;;;;;;9.79;100.00;102100.47;5241206;28;20036;-69
2021/11/14 08:41:29;;;;;;;34.70;25.23;;;;;;;9.81;100.00;102104.69;5246804;28;20475;-69
2021/11/14 08:44:01;;;;;;;33.08;24.73;;;;;;;9.83;100.00;102102.78;5247819;28;20021;-69
2021/11/14 08:46:34;;;;;;;29.85;22.23;;;;;;;9.67;100.00;102102.88;5220254;28;20121;-70
2021/11/14 08:49:05;;;;;;;33.23;23.33;;;;;;;9.71;100.00;102116.63;5244582;28;20029;-69
2021/11/14 08:51:37;;;;;;;31.02;21.92;;;;;;;9.72;100.00;102106.06;5244966;28;20032;-69
2021/11/14 08:54:08;;;;;;;30.85;22.88;;;;;;;9.74;100.00;102117.28;5243665;28;20056;-69
2021/11/14 08:56:39;;;;;;;28.98;21.58;;;;;;;9.74;100.00;102127.75;5244237;28;20072;-69
2021/11/14 08:59:12;;;;;;;28.75;20.63;;;;;;;9.69;100.00;102121.09;5239640;28;20026;-69
2021/11/14 09:01:44;;;;;;;26.77;19.58;;;;;;;9.71;100.00;102130.56;5244800;28;20471;-69
2021/11/14 09:04:15;;;;;;;29.30;19.63;;;;;;;9.60;100.00;102135.59;5241148;28;20025;-69
2021/11/14 09:06:47;;;;;;;24.00;18.35;;;;;;;9.56;100.00;102143.72;5241871;28;20430;-69
2021/11/14 09:09:18;;;;;;;25.63;18.35;;;;;;;9.62;100.00;102138.09;5243711;28;20040;-69
2021/11/14 09:11:50;;;;;;;28.13;20.15;;;;;;;9.60;100.00;102142.59;5242660;28;20719;-69
2021/11/14 09:14:22;;;;;;;24.10;18.77;;;;;;;9.70;100.00;102144.56;5243110;28;20029;-69
2021/11/14 09:16:55;;;;;;;26.10;19.10;;;;;;;9.74;100.00;102153.94;5242608;28;20049;-69
2021/11/14 09:19:26;;;;;;;24.35;19.45;;;;;;;9.66;100.00;102155.28;5243148;28;20025;-69
2021/11/14 09:21:58;;;;;;;25.83;19.77;;;;;;;9.70;100.00;102155.03;5241582;28;20027;-69
2021/11/14 09:24:29;;;;;;;26.38;19.70;;;;;;;9.71;100.00;102138.41;5219819;28;20041;-69
2021/11/14 09:27:01;;;;;;;29.27;20.73;;;;;;;9.74;100.00;102160.94;5239882;28;20486;-69
2021/11/14 09:29:32;;;;;;;25.13;19.20;;;;;;;9.82;100.00;102163.94;5239783;28;20040;-69
2021/11/14 09:32:05;;;;;;;26.80;20.60;;;;;;;9.81;100.00;102170.09;5243003;28;20127;-69
2021/11/14 09:34:36;;;;;;;;;;;;;;;10.39;100.00;102165.69;5242075;28;20071;-69
2021/11/14 09:37:07;;;;;;;27.20;19.30;;;;;;;9.96;100.00;102170.94;5242709;28;19964;-69
2021/11/14 09:39:39;;;;;;;27.15;20.25;;;;;;;9.96;100.00;102171.78;5241549;28;20036;-69
2021/11/14 09:42:12;;;;;;;24.33;19.10;;;;;;;9.97;100.00;102177.88;5241476;28;20036;-69
2021/11/14 09:44:43;;;;;;;25.73;19.90;;;;;;;10.00;100.00;102167.22;5241661;28;20094;-69
2021/11/14 09:47:15;;;;;;;24.90;19.10;;;;;;;9.97;100.00;102188.34;5241407;28;20160;-69
2021/11/14 09:49:46;;;;;;;24.00;19.08;;;;;;;9.98;100.00;102190.84;5240961;28;20112;-69
2021/11/14 09:52:17;;;;;;;24.15;18.88;;;;;;;10.08;100.00;102188.53;5245533;28;20060;-69
2021/11/14 09:54:49;;;;;;;26.75;20.33;;;;;;;10.06;100.00;102193.00;5246290;28;20489;-69
2021/11/14 09:57:20;;;;;;;26.77;20.30;;;;;;;10.10;100.00;102188.41;5245283;28;20441;-69
2021/11/14 09:59:51;;;;;;;29.20;19.83;;;;;;;10.16;100.00;102194.13;5245088;28;20021;-69
2021/11/14 10:02:23;;;;;;;25.27;19.95;;;;;;;10.22;100.00;102192.91;5241293;28;20060;-69
2021/11/14 10:04:54;;;;;;;24.25;20.45;;;;;;;10.17;100.00;102187.13;5241230;28;20017;-69
2021/11/14 10:07:25;;;;;;;24.80;19.27;;;;;;;10.26;100.00;102191.81;5239869;28;20096;-69
2021/11/14 10:09:56;;;;;;;26.13;21.02;;;;;;;10.21;100.00;102194.69;5242148;28;20064;-69
2021/11/14 10:12:36;;;;;;;24.40;19.88;;;;;;;10.37;100.00;102197.22;5240844;28;20021;-69
2021/11/14 10:15:12;;;;;;;22.38;19.58;;;;;;;10.44;100.00;102200.31;5239317;28;20040;-69
2021/11/14 10:17:50;;;;;;;23.52;18.95;;;;;;;10.44;100.00;102208.16;5241195;28;20051;-69
2021/11/14 10:20:30;;;;;;;20.60;16.83;;;;;;;10.48;100.00;102199.16;5241477;28;20383;-69
2021/11/14 10:23:08;;;;;;;21.50;17.08;;;;;;;10.47;100.00;102214.06;5242823;28;20120;-70
2021/11/14 10:25:41;;;;;;;19.80;17.13;;;;;;;10.41;100.00;102214.44;5238912;28;20037;-69
2021/11/14 10:28:13;;;;;;;19.33;16.70;;;;;;;10.36;100.00;102215.66;5240921;28;20281;-71
2021/11/14 10:30:46;;;;;;;16.80;15.00;;;;;;;10.42;100.00;102215.28;5239929;28;20053;-68
2021/11/14 10:33:19;;;;;;;17.70;15.65;;;;;;;10.42;100.00;102221.38;5242769;28;20041;-68
2021/11/14 10:35:54;;;;;;;19.33;15.80;;;;;;;10.37;100.00;102223.41;5242629;28;20676;-68
2021/11/14 10:38:31;;;;;;;18.02;15.25;;;;;;;10.34;100.00;102223.63;5241584;28;20021;-68
2021/11/14 10:41:06;;;;;;;18.23;15.85;;;;;;;10.39;100.00;102223.34;5243320;28;20055;-68
2021/11/14 10:43:39;;;;;;;16.65;14.65;;;;;;;10.41;100.00;102224.91;5240563;28;20028;-68
2021/11/14 10:46:20;;;;;;;21.33;15.25;;;;;;;10.58;100.00;102215.16;5240322;28;20128;-68
2021/11/14 10:49:05;;;;;;;16.85;14.50;;;;;;;10.68;100.00;102222.38;5240712;28;20055;-68
2021/11/14 10:51:38;;;;;;;16.73;14.45;;;;;;;10.68;100.00;102222.38;5241352;28;20040;-68
2021/11/14 10:54:10;;;;;;;15.55;13.90;;;;;;;10.69;100.00;102226.66;5226252;28;20046;-68
2021/11/14 10:56:43;;;;;;;15.00;13.23;;;;;;;10.77;100.00;102231.41;5219461;28;20025;-68
2021/11/14 10:59:19;;;;;;;15.52;13.90;;;;;;;10.81;100.00;102226.81;5217396;28;20542;-69
2021/11/14 11:01:52;;;;;;;15.88;14.07;;;;;;;10.81;100.00;102229.44;5221557;28;20040;-68
2021/11/14 11:04:23;;;;;;;15.05;13.30;;;;;;;10.90;100.00;102221.81;5219587;28;20052;-68
2021/11/14 11:06:55;;;;;;;15.45;13.45;;;;;;;10.99;100.00;102228.28;5220353;28;20112;-69
2021/11/14 11:09:31;;;;;;;16.10;14.13;;;;;;;11.04;100.00;102228.81;5218103;28;20022;-68
2021/11/14 11:12:15;;;;;;;17.02;15.25;;;;;;;11.07;100.00;102235.63;5218445;28;20029;-68
2021/11/14 11:15:10;;;;;;;17.20;14.60;;;;;;;11.20;100.00;102242.59;5220654;28;20044;-68
2021/11/14 11:17:45;;;;;;;16.20;14.57;;;;;;;10.96;100.00;102237.16;5216447;28;20037;-68
2021/11/14 11:20:21;;;;;;;18.38;16.38;;;;;;;11.00;100.00;102242.22;5218363;28;20066;-68
2021/11/14 11:22:56;;;;;;;17.35;15.55;;;;;;;11.04;100.00;102243.69;5218566;28;20072;-68
2021/11/14 11:25:34;;;;;;;17.67;15.68;;;;;;;11.06;100.00;102244.44;5217162;28;20116;-68
2021/11/14 11:28:10;;;;;;;18.95;16.88;;;;;;;11.00;100.00;102250.91;5218617;28;20112;-68
2021/11/14 11:30:55;;;;;;;17.92;16.10;;;;;;;11.07;100.00;102248.75;5218437;28;20033;-68
2021/11/14 11:33:28;;;;;;;18.83;16.92;;;;;;;11.07;100.00;102243.50;5218319;28;20064;-68